Time;durP1;ratioP1;P1;durP2;ratioP2;P2;SDS_P1;SDS_P2;PMS_P1;PMS_P2;Temp;Humidity;BMP_temperature;BMP_pressure;BME280_temperature;BME280_humidity;BME280_pressure;Samples;Min_cycle;Max_cycle;Signal;HPM_P1;HPM_P2
2022/10/04 00:01:24;;;;;;;23.08;13.52;;;13.00;99.90;;;;;;5003239;28;20425;-71
2022/10/04 00:04:02;;;;;;;26.55;12.57;;;13.00;99.90;;;;;;5003009;28;20504;-72
2022/10/04 00:06:28;;;;;;;22.73;12.05;;;13.00;99.90;;;;;;5003830;28;20042;-73
2022/10/04 00:08:59;;;;;;;21.67;11.85;;;13.00;99.90;;;;;;5005877;28;20042;-72
2022/10/04 00:11:29;;;;;;;24.45;12.25;;;13.00;99.90;;;;;;5009116;28;20042;-72
2022/10/04 00:13:59;;;;;;;29.15;13.68;;;13.00;99.90;;;;;;5006940;28;20037;-72
2022/10/04 00:16:31;;;;;;;28.25;12.60;;;13.00;99.90;;;;;;5004719;28;20068;-72
2022/10/04 00:19:11;;;;;;;32.10;14.18;;;13.00;99.90;;;;;;5000386;28;20452;-71
2022/10/04 00:21:52;;;;;;;31.67;12.50;;;13.00;99.90;;;;;;5003968;28;20402;-72
2022/10/04 00:24:29;;;;;;;23.95;12.70;;;13.00;99.90;;;;;;5005157;28;20048;-72
2022/10/04 00:27:21;;;;;;;21.88;12.15;;;13.00;99.90;;;;;;5000070;28;20041;-72
2022/10/04 00:30:14;;;;;;;23.45;11.40;;;13.00;99.90;;;;;;5003186;28;20062;-72
2022/10/04 00:32:40;;;;;;;;;;;12.90;99.90;;;;;;5003592;28;20108;-71
2022/10/04 00:35:24;;;;;;;22.80;11.25;;;12.90;99.90;;;;;;5007678;28;19929;-70
2022/10/04 00:38:28;;;;;;;31.17;12.15;;;13.00;99.90;;;;;;5006686;28;20053;-71
2022/10/04 00:41:03;;;;;;;25.73;12.07;;;12.90;99.90;;;;;;4989324;28;20080;-71
2022/10/04 00:43:39;;;;;;;25.75;11.25;;;13.00;99.90;;;;;;5005403;28;20038;-71
2022/10/04 00:46:13;;;;;;;20.42;11.07;;;13.00;99.90;;;;;;5003792;28;20125;-70
2022/10/04 00:48:53;;;;;;;25.77;11.60;;;12.90;99.90;;;;;;5001142;28;20699;-71
2022/10/04 00:51:47;;;;;;;29.38;12.38;;;12.90;99.90;;;;;;5006131;28;20045;-71
2022/10/04 00:54:44;;;;;;;21.33;10.10;;;12.90;99.90;;;;;;5002605;28;20046;-71
2022/10/04 00:57:22;;;;;;;21.80;10.63;;;12.90;99.90;;;;;;5011905;28;20121;-71
2022/10/04 00:59:49;;;;;;;24.58;11.75;;;12.90;99.90;;;;;;5001886;28;20053;-71
2022/10/04 01:02:45;;;;;;;24.95;11.85;;;12.90;99.90;;;;;;4996813;28;20038;-72
2022/10/04 01:05:22;;;;;;;21.30;10.50;;;12.90;99.90;;;;;;5002242;28;20132;-72
2022/10/04 01:07:53;;;;;;;24.98;10.82;;;12.90;99.90;;;;;;5001701;28;20045;-72
2022/10/04 01:10:26;;;;;;;20.33;10.52;;;12.90;99.90;;;;;;4998463;28;20502;-73
2022/10/04 01:13:06;;;;;;;24.92;10.63;;;12.80;99.90;;;;;;5002926;28;20038;-72
2022/10/04 01:15:58;;;;;;;22.23;10.20;;;12.90;99.90;;;;;;5000644;28;20065;-72
2022/10/04 01:18:23;;;;;;;28.23;11.63;;;12.80;99.90;;;;;;5000547;28;20421;-72
2022/10/04 01:21:03;;;;;;;20.75;10.23;;;12.80;99.90;;;;;;5000549;28;20054;-72
2022/10/04 01:23:41;;;;;;;28.88;12.13;;;12.70;99.90;;;;;;4999105;28;20046;-71
2022/10/04 01:26:25;;;;;;;22.80;11.50;;;12.70;99.90;;;;;;4996313;28;20121;-71
2022/10/04 01:29:14;;;;;;;24.13;11.45;;;12.70;99.90;;;;;;5000885;28;20433;-72
2022/10/04 01:31:45;;;;;;;21.05;10.70;;;12.70;99.90;;;;;;4993286;28;20669;-72
2022/10/04 01:34:16;;;;;;;27.92;11.27;;;12.60;99.90;;;;;;4995889;28;20089;-73
2022/10/04 01:36:44;;;;;;;20.23;10.90;;;12.60;99.90;;;;;;4998567;28;22253;-72
2022/10/04 01:39:11;;;;;;;20.23;11.20;;;12.50;99.90;;;;;;4998334;28;20103;-72
2022/10/04 01:41:41;;;;;;;21.73;11.30;;;12.50;99.90;;;;;;5000416;28;20640;-73
2022/10/04 01:44:16;;;;;;;20.17;11.23;;;12.40;99.90;;;;;;4991145;28;20046;-73
2022/10/04 01:46:42;;;;;;;26.65;11.10;;;12.40;99.90;;;;;;4995269;28;20468;-73
2022/10/04 01:49:16;;;;;;;26.52;11.30;;;12.30;99.90;;;;;;4992430;28;20065;-72
2022/10/04 01:51:49;;;;;;;21.33;11.05;;;12.30;99.90;;;;;;5001701;28;20415;-73
2022/10/04 01:54:22;;;;;;;21.92;10.75;;;12.20;99.90;;;;;;5000122;28;20049;-73
2022/10/04 01:57:26;;;;;;;28.13;12.68;;;12.20;99.90;;;;;;5001117;28;20045;-73
2022/10/04 01:59:56;;;;;;;;;;;12.20;99.90;;;;;;4996511;28;20436;-73
2022/10/04 02:02:59;;;;;;;22.45;10.93;;;12.10;99.90;;;;;;5001723;28;19921;-73
2022/10/04 02:05:46;;;;;;;24.52;11.48;;;12.00;99.90;;;;;;5008861;28;20481;-72
2022/10/04 02:08:17;;;;;;;19.70;11.93;;;12.00;99.90;;;;;;5010765;28;20049;-72
2022/10/04 02:10:47;;;;;;;30.50;11.90;;;12.00;99.90;;;;;;5000127;28;20064;-73
2022/10/04 02:13:18;;;;;;;31.50;12.43;;;12.00;99.90;;;;;;4999603;28;20093;-73
2022/10/04 02:15:46;;;;;;;24.10;11.48;;;11.80;99.90;;;;;;4986730;28;20042;-73
2022/10/04 02:18:16;;;;;;;22.17;11.15;;;11.80;99.90;;;;;;5002710;28;20547;-73
2022/10/04 02:20:43;;;;;;;23.25;11.63;;;11.80;99.90;;;;;;5003870;28;20045;-73
2022/10/04 02:23:10;;;;;;;20.05;11.07;;;11.80;99.90;;;;;;5002792;28;20048;-73
2022/10/04 02:25:37;;;;;;;21.92;10.93;;;11.80;99.90;;;;;;5002250;28;20041;-72
2022/10/04 02:28:09;;;;;;;27.65;12.32;;;11.70;99.90;;;;;;5004523;28;20049;-72
2022/10/04 02:30:37;;;;;;;25.73;11.63;;;11.60;99.90;;;;;;4999894;28;20048;-72
2022/10/04 02:33:03;;;;;;;23.08;12.23;;;11.60;99.90;;;;;;5005104;28;20041;-73
2022/10/04 02:35:34;;;;;;;26.38;11.60;;;11.60;99.90;;;;;;5004806;28;20611;-72
2022/10/04 02:38:12;;;;;;;27.90;11.35;;;11.60;99.90;;;;;;5003527;28;20088;-74
2022/10/04 02:40:48;;;;;;;24.98;12.05;;;11.50;99.90;;;;;;5002007;28;20114;-72
2022/10/04 02:43:22;;;;;;;21.98;10.27;;;11.50;99.90;;;;;;5000706;28;20049;-72
2022/10/04 02:45:52;;;;;;;26.85;11.00;;;11.50;99.90;;;;;;4996933;28;20761;-72
2022/10/04 02:48:44;;;;;;;24.27;11.93;;;11.50;99.90;;;;;;5004517;28;20065;-72
2022/10/04 02:51:32;;;;;;;21.17;11.55;;;11.40;99.90;;;;;;4998826;28;20057;-72
2022/10/04 02:54:13;;;;;;;19.73;10.85;;;11.40;99.90;;;;;;5005051;28;20046;-72
2022/10/04 02:56:40;;;;;;;26.52;12.18;;;11.40;99.90;;;;;;5003288;28;20045;-73
2022/10/04 02:59:06;;;;;;;20.60;12.85;;;11.40;99.90;;;;;;5001325;28;20084;-73
2022/10/04 03:01:42;;;;;;;26.27;12.18;;;11.30;99.90;;;;;;5002055;28;20096;-72
2022/10/04 03:04:11;;;;;;;26.83;12.77;;;11.30;99.90;;;;;;4999974;28;20508;-72
2022/10/04 03:06:37;;;;;;;26.45;12.57;;;11.30;99.90;;;;;;5001377;28;20049;-72
2022/10/04 03:09:04;;;;;;;24.20;12.90;;;11.30;99.90;;;;;;5000297;28;20049;-72
2022/10/04 03:11:36;;;;;;;28.35;12.73;;;11.20;99.90;;;;;;5003328;28;20155;-72
2022/10/04 03:14:06;;;;;;;22.85;13.13;;;11.20;99.90;;;;;;5007095;28;20038;-71
2022/10/04 03:16:38;;;;;;;23.45;12.65;;;11.20;99.90;;;;;;5005665;28;20061;-72
2022/10/04 03:19:05;;;;;;;26.30;13.65;;;11.20;99.90;;;;;;5007056;28;20042;-72
2022/10/04 03:21:33;;;;;;;17.77;12.23;;;11.10;99.90;;;;;;5005079;28;20075;-73
2022/10/04 03:24:00;;;;;;;23.58;12.68;;;11.10;99.90;;;;;;5000292;28;20569;-73
2022/10/04 03:26:48;;;;;;;24.98;13.77;;;11.20;99.90;;;;;;5004316;28;20133;-72
2022/10/04 03:29:16;;;;;;;25.65;12.82;;;11.10;99.90;;;;;;5000936;28;20073;-73
2022/10/04 03:31:45;;;;;;;28.73;13.35;;;11.10;99.90;;;;;;5002682;28;20058;-73
2022/10/04 03:34:22;;;;;;;24.60;13.98;;;11.10;99.90;;;;;;5005367;28;20042;-73
2022/10/04 03:36:49;;;;;;;22.15;14.40;;;11.10;99.90;;;;;;5001195;28;20045;-73
2022/10/04 03:39:27;;;;;;;29.20;14.32;;;11.10;99.90;;;;;;4996423;28;20046;-73
2022/10/04 03:41:53;;;;;;;29.27;14.20;;;11.10;99.90;;;;;;5002971;28;22859;-74
2022/10/04 03:44:20;;;;;;;28.23;14.65;;;11.10;99.90;;;;;;5002380;28;20096;-73
2022/10/04 03:46:46;;;;;;;25.35;15.27;;;11.10;99.90;;;;;;4997923;28;20053;-73
2022/10/04 03:49:17;;;;;;;28.67;14.63;;;11.10;99.90;;;;;;5004704;28;20085;-73
2022/10/04 03:51:47;;;;;;;37.88;15.05;;;11.10;99.90;;;;;;5000954;28;20042;-73
2022/10/04 03:54:20;;;;;;;29.90;15.52;;;11.10;99.90;;;;;;5001395;28;20136;-72
2022/10/04 03:56:46;;;;;;;31.63;15.52;;;11.00;99.90;;;;;;5003693;28;20121;-72
2022/10/04 03:59:16;;;;;;;30.75;14.65;;;11.00;99.90;;;;;;5005033;28;20080;-72
2022/10/04 04:02:15;;;;;;;26.55;13.82;;;11.00;99.90;;;;;;5001451;28;20034;-72
2022/10/04 04:05:25;;;;;;;25.38;14.40;;;10.90;99.90;;;;;;4997414;28;20483;-72
2022/10/04 04:07:57;;;;;;;24.98;14.77;;;10.90;99.90;;;;;;4983701;28;20038;-73
2022/10/04 04:10:26;;;;;;;29.42;16.00;;;10.90;99.90;;;;;;4997074;28;20658;-72
2022/10/04 04:12:51;;;;;;;28.20;15.57;;;10.90;99.90;;;;;;5001975;28;20108;-72
2022/10/04 04:15:17;;;;;;;30.08;17.15;;;10.90;99.90;;;;;;4998439;28;20484;-72
2022/10/04 04:17:53;;;;;;;31.02;16.70;;;10.90;99.90;;;;;;5001766;28;20054;-72
2022/10/04 04:20:30;;;;;;;27.13;15.65;;;10.80;99.90;;;;;;5000488;28;20456;-72
2022/10/04 04:23:14;;;;;;;33.58;17.27;;;10.80;99.90;;;;;;4999125;28;20049;-71
2022/10/04 04:25:44;;;;;;;36.15;17.48;;;10.80;99.90;;;;;;5001187;28;20038;-71
2022/10/04 04:28:24;;;;;;;26.50;16.25;;;10.80;99.90;;;;;;4999471;28;20130;-73
2022/10/04 04:30:55;;;;;;;39.17;17.65;;;10.80;99.90;;;;;;4998928;28;20183;-72
2022/10/04 04:33:30;;;;;;;28.25;17.88;;;10.80;99.90;;;;;;5003754;28;20049;-72
2022/10/04 04:36:03;;;;;;;29.35;17.38;;;10.80;99.90;;;;;;5000045;28;20095;-70
2022/10/04 04:38:30;;;;;;;37.20;18.38;;;10.80;99.90;;;;;;5004055;28;20042;-71
2022/10/04 04:41:07;;;;;;;28.23;17.13;;;10.80;99.90;;;;;;5004440;28;20046;-72
2022/10/04 04:43:34;;;;;;;36.30;18.33;;;10.80;99.90;;;;;;5001730;28;20049;-71
2022/10/04 04:46:00;;;;;;;32.78;18.67;;;10.80;99.90;;;;;;5000158;28;20501;-72
2022/10/04 04:48:26;;;;;;;31.75;17.17;;;10.70;99.90;;;;;;5003595;28;20494;-72
2022/10/04 04:50:55;;;;;;;35.05;19.40;;;10.70;99.90;;;;;;5004461;28;20077;-71
2022/10/04 04:53:28;;;;;;;34.83;17.50;;;10.70;99.90;;;;;;5002676;28;20061;-71
2022/10/04 04:56:02;;;;;;;28.95;16.65;;;10.70;99.90;;;;;;5002537;28;20077;-72
2022/10/04 04:58:34;;;;;;;35.67;18.25;;;10.70;99.90;;;;;;4997505;28;20074;-72
2022/10/04 05:01:27;;;;;;;32.50;17.98;;;10.70;99.90;;;;;;4999444;28;20045;-71
2022/10/04 05:04:04;;;;;;;33.00;17.47;;;10.60;99.90;;;;;;5004859;28;20046;-72
2022/10/04 05:06:32;;;;;;;31.23;18.60;;;10.60;99.90;;;;;;5022424;28;20758;-71
2022/10/04 05:08:58;;;;;;;31.90;17.55;;;10.60;99.90;;;;;;5001837;28;20050;-72
2022/10/04 05:11:36;;;;;;;27.58;17.00;;;10.60;99.90;;;;;;5000033;28;20052;-72
2022/10/04 05:14:09;;;;;;;27.13;16.98;;;10.60;99.90;;;;;;5003292;28;20054;-72
2022/10/04 05:16:54;;;;;;;31.27;18.25;;;10.60;99.90;;;;;;5000229;28;20178;-72
2022/10/04 05:19:22;;;;;;;39.60;18.60;;;10.50;99.90;;;;;;5003321;28;20077;-71
2022/10/04 05:21:52;;;;;;;32.75;18.88;;;10.50;99.90;;;;;;4999919;28;20053;-71
2022/10/04 05:24:26;;;;;;;30.60;18.15;;;10.40;99.90;;;;;;4998036;28;20056;-73
2022/10/04 05:26:56;;;;;;;30.58;18.23;;;10.50;99.90;;;;;;5000056;28;20096;-73
2022/10/04 05:29:33;;;;;;;29.92;17.77;;;10.50;99.90;;;;;;4999442;28;20042;-73
2022/10/04 05:32:33;;;;;;;35.50;18.35;;;10.40;99.90;;;;;;5005701;28;20049;-69
2022/10/04 05:35:00;;;;;;;32.50;17.48;;;10.50;99.90;;;;;;4998282;28;20082;-71
2022/10/04 05:37:26;;;;;;;29.95;19.00;;;10.50;99.90;;;;;;5000360;28;20394;-71
2022/10/04 05:40:03;;;;;;;30.73;17.77;;;10.50;99.90;;;;;;5003618;28;20073;-71
2022/10/04 05:42:44;;;;;;;28.85;18.50;;;10.50;99.90;;;;;;5002296;28;20049;-71
2022/10/04 05:45:24;;;;;;;31.52;17.75;;;10.50;99.90;;;;;;5000185;28;21426;-72
2022/10/04 05:47:56;;;;;;;29.00;17.73;;;10.50;99.90;;;;;;5000088;28;20058;-71
2022/10/04 05:50:40;;;;;;;28.77;18.33;;;10.50;99.90;;;;;;5004037;28;20097;-72
2022/10/04 05:53:21;;;;;;;33.42;19.83;;;10.50;99.90;;;;;;5001847;28;20046;-73
2022/10/04 05:55:59;;;;;;;33.67;18.70;;;10.50;99.90;;;;;;5000979;28;20042;-73
2022/10/04 05:58:43;;;;;;;31.67;20.88;;;10.50;99.90;;;;;;5003998;28;20519;-72
2022/10/04 06:01:29;;;;;;;36.42;18.95;;;10.50;99.90;;;;;;5000186;28;20133;-73
2022/10/04 06:04:20;;;;;;;28.58;19.42;;;10.60;99.90;;;;;;5009214;28;20030;-72
2022/10/04 06:07:17;;;;;;;39.25;20.45;;;10.60;99.90;;;;;;5010434;28;20088;-72
2022/10/04 06:10:24;;;;;;;29.73;19.65;;;10.50;99.90;;;;;;4995148;28;20493;-73
2022/10/04 06:13:12;;;;;;;33.28;19.98;;;10.50;99.90;;;;;;4998901;28;20058;-73
2022/10/04 06:15:52;;;;;;;32.65;19.58;;;10.50;99.90;;;;;;5002255;28;20045;-73
2022/10/04 06:18:37;;;;;;;33.83;20.48;;;10.50;99.90;;;;;;5002889;28;22610;-73
2022/10/04 06:21:13;;;;;;;37.33;19.95;;;10.60;99.90;;;;;;5007330;28;20049;-73
2022/10/04 06:24:02;;;;;;;31.88;19.02;;;10.60;99.90;;;;;;4991656;28;20112;-72
2022/10/04 06:26:52;;;;;;;29.77;19.00;;;10.60;99.90;;;;;;4996723;28;20057;-72
2022/10/04 06:29:24;;;;;;;30.80;18.77;;;10.50;99.90;;;;;;4996505;28;20057;-72
2022/10/04 06:32:03;;;;;;;35.95;18.77;;;10.70;99.90;;;;;;4999844;28;20042;-73
2022/10/04 06:34:29;;;;;;;35.97;19.63;;;10.60;99.90;;;;;;5000643;28;20076;-73
2022/10/04 06:37:08;;;;;;;28.88;19.90;;;10.60;99.90;;;;;;4996001;28;20445;-71
2022/10/04 06:39:53;;;;;;;34.63;20.42;;;10.60;99.90;;;;;;4993378;28;20537;-72
2022/10/04 06:42:32;;;;;;;34.55;20.27;;;10.60;99.90;;;;;;4997981;28;20042;-72
2022/10/04 06:45:29;;;;;;;34.85;20.40;;;10.70;99.90;;;;;;4997647;28;20142;-72
2022/10/04 06:48:21;;;;;;;35.65;21.70;;;10.70;99.90;;;;;;5002176;28;20046;-72
2022/10/04 06:51:24;;;;;;;30.88;21.15;;;10.70;99.90;;;;;;4982886;28;20559;-70
2022/10/04 06:54:17;;;;;;;30.02;19.63;;;10.80;99.90;;;;;;5003036;28;20057;-73
2022/10/04 06:57:03;;;;;;;37.72;20.25;;;10.80;99.90;;;;;;4996517;28;20666;-73
2022/10/04 06:59:57;;;;;;;33.92;20.75;;;10.90;99.90;;;;;;5002156;28;20117;-73
2022/10/04 07:02:46;;;;;;;32.90;21.08;;;11.00;99.90;;;;;;5008912;28;20497;-74
2022/10/04 07:05:29;;;;;;;28.80;20.35;;;11.00;99.90;;;;;;4991784;28;20042;-72
2022/10/04 07:08:46;;;;;;;36.72;20.48;;;11.20;99.90;;;;;;5008824;28;20056;-72
2022/10/04 07:11:31;;;;;;;29.85;18.77;;;11.20;99.90;;;;;;4951794;28;20636;-72
2022/10/04 07:14:08;;;;;;;29.92;19.02;;;11.30;99.90;;;;;;4998590;28;20104;-74
2022/10/04 07:16:49;;;;;;;30.52;18.55;;;11.40;99.90;;;;;;4996722;28;20127;-74
2022/10/04 07:19:18;;;;;;;30.05;19.17;;;11.50;99.90;;;;;;4999249;28;20053;-74
2022/10/04 07:22:11;;;;;;;31.25;18.45;;;11.50;99.90;;;;;;4997474;28;20074;-74
2022/10/04 07:25:07;;;;;;;29.35;18.33;;;11.50;99.90;;;;;;5000873;28;20509;-74
2022/10/04 07:29:19;;;;;;;29.00;17.63;;;11.50;99.90;;;;;;4996511;28;20042;-74
2022/10/04 07:31:04;;;;;;;29.95;17.92;;;11.50;99.90;;;;;;4997806;28;20052;-72
2022/10/04 07:33:34;;;;;;;25.08;16.65;;;11.50;99.90;;;;;;4996479;28;20033;-73
2022/10/04 07:36:04;;;;;;;29.52;17.35;;;11.50;99.90;;;;;;5005805;28;20046;-76
2022/10/04 07:38:35;;;;;;;33.17;19.27;;;11.40;99.90;;;;;;5006233;28;20337;-73
2022/10/04 07:41:25;;;;;;;34.03;19.08;;;11.40;99.90;;;;;;4996828;28;20129;-73
2022/10/04 07:43:58;;;;;;;27.13;17.52;;;11.40;99.90;;;;;;4998924;28;20041;-75
2022/10/04 07:46:41;;;;;;;28.50;18.67;;;11.50;99.90;;;;;;5001852;28;20125;-76
2022/10/04 07:49:26;;;;;;;27.63;17.20;;;11.60;99.90;;;;;;4991238;28;20069;-75
2022/10/04 07:52:04;;;;;;;33.05;18.38;;;11.80;99.90;;;;;;5004730;28;20049;-75
2022/10/04 07:54:47;;;;;;;29.92;16.92;;;11.90;99.90;;;;;;5002263;28;20045;-76
2022/10/04 07:57:36;;;;;;;25.27;17.05;;;11.90;99.90;;;;;;5000929;28;20054;-75
2022/10/04 08:00:15;;;;;;;28.92;17.50;;;11.90;99.90;;;;;;5001509;28;20050;-75
2022/10/04 08:03:15;;;;;;;29.25;17.75;;;12.10;99.90;;;;;;5008708;28;20053;-75
2022/10/04 08:05:57;;;;;;;26.88;17.00;;;12.30;99.90;;;;;;4977136;28;20034;-76
2022/10/04 08:08:26;;;;;;;27.67;17.35;;;12.40;99.90;;;;;;4998088;28;20035;-74
2022/10/04 08:11:16;;;;;;;25.88;16.38;;;12.60;99.90;;;;;;5003029;28;20058;-75
2022/10/04 08:13:56;;;;;;;28.98;17.65;;;12.70;99.90;;;;;;4982904;28;20425;-75
2022/10/04 08:16:22;;;;;;;36.20;20.75;;;12.80;99.90;;;;;;5004671;28;20046;-75
2022/10/04 08:19:03;;;;;;;28.77;16.73;;;12.90;99.90;;;;;;5006668;28;20045;-75
2022/10/04 08:21:47;;;;;;;26.05;17.08;;;13.00;99.90;;;;;;5009188;28;20074;-75
2022/10/04 08:24:23;;;;;;;28.05;15.90;;;13.00;99.90;;;;;;5007953;28;20045;-75
2022/10/04 08:27:18;;;;;;;28.85;17.20;;;13.10;99.90;;;;;;5002675;28;20042;-75
2022/10/04 08:29:59;;;;;;;29.83;17.23;;;13.30;99.90;;;;;;5009357;28;20038;-75
2022/10/04 08:33:05;;;;;;;26.35;15.50;;;13.40;99.90;;;;;;5006434;28;20140;-75
2022/10/04 08:35:51;;;;;;;23.48;15.98;;;13.50;99.90;;;;;;5005868;28;20646;-75
2022/10/04 08:38:30;;;;;;;21.27;15.25;;;13.60;99.90;;;;;;5009452;28;20101;-75
2022/10/04 08:41:35;;;;;;;21.40;15.20;;;13.70;99.90;;;;;;5010762;28;20042;-75
2022/10/04 08:44:22;;;;;;;25.00;14.95;;;13.80;99.90;;;;;;5009411;28;20077;-76
2022/10/04 08:47:24;;;;;;;26.70;15.77;;;13.90;99.90;;;;;;5002173;28;20045;-75
2022/10/04 08:50:19;;;;;;;24.30;15.80;;;14.00;99.90;;;;;;5010117;28;20046;-75
2022/10/04 08:53:15;;;;;;;24.08;15.48;;;14.00;99.90;;;;;;4968581;28;20061;-75
2022/10/04 08:55:52;;;;;;;27.48;15.43;;;14.20;99.90;;;;;;4999012;28;20412;-75
2022/10/04 08:58:40;;;;;;;27.13;14.85;;;14.20;99.90;;;;;;5002137;28;20125;-76
2022/10/04 09:01:35;;;;;;;24.13;16.23;;;14.20;99.90;;;;;;5003420;28;20456;-76
2022/10/04 09:04:22;;;;;;;23.27;14.70;;;14.20;99.90;;;;;;5008473;28;20137;-74
2022/10/04 09:07:23;;;;;;;24.48;15.65;;;14.20;99.90;;;;;;4996982;28;20445;-76
2022/10/04 09:10:24;;;;;;;23.95;15.02;;;14.20;99.90;;;;;;5003771;28;20544;-76
2022/10/04 09:13:22;;;;;;;25.52;15.63;;;14.20;99.90;;;;;;5006808;28;20417;-77
2022/10/04 09:15:53;;;;;;;24.88;14.40;;;14.40;99.90;;;;;;5004447;28;20042;-77
2022/10/04 09:18:37;;;;;;;24.00;14.13;;;14.50;99.90;;;;;;5007755;28;20056;-78
2022/10/04 09:21:13;;;;;;;27.55;15.23;;;14.60;99.90;;;;;;5007230;28;20085;-76
2022/10/04 09:24:11;;;;;;;22.42;14.50;;;14.70;99.90;;;;;;5009649;28;20053;-77
2022/10/04 09:27:10;;;;;;;24.75;16.23;;;14.80;99.90;;;;;;5002164;28;20509;-75
2022/10/04 09:30:07;;;;;;;25.98;15.02;;;14.90;99.90;;;;;;4984796;28;20437;-75
2022/10/04 09:32:47;;;;;;;26.88;15.63;;;15.00;99.90;;;;;;5003244;28;20053;-75
2022/10/04 09:35:38;;;;;;;27.35;16.45;;;15.00;99.90;;;;;;5004181;28;20054;-75
2022/10/04 09:38:06;;;;;;;28.48;18.38;;;14.90;99.90;;;;;;5001460;28;20054;-70
2022/10/04 09:41:09;;;;;;;27.20;15.65;;;14.90;99.90;;;;;;5005866;28;20060;-73
2022/10/04 09:44:07;;;;;;;27.55;15.60;;;15.10;99.90;;;;;;5008683;28;20057;-75
2022/10/04 09:46:54;;;;;;;25.30;15.77;;;15.20;99.90;;;;;;5008411;28;20045;-74
2022/10/04 09:50:17;;;;;;;23.48;15.23;;;15.30;99.90;;;;;;4990498;28;20050;-74
2022/10/04 09:53:07;;;;;;;24.05;15.45;;;15.20;99.90;;;;;;4984292;28;20126;-73
2022/10/04 09:56:10;;;;;;;20.77;14.38;;;15.20;99.90;;;;;;4987013;28;20046;-74
2022/10/04 09:58:57;;;;;;;22.98;15.27;;;15.10;99.90;;;;;;5001331;28;20153;-74
2022/10/04 10:01:46;;;;;;;22.33;14.95;;;15.20;99.90;;;;;;4994240;28;20128;-74
2022/10/04 10:04:49;;;;;;;24.55;15.27;;;15.20;99.90;;;;;;4998213;28;20049;-74
2022/10/04 10:07:24;;;;;;;21.75;14.43;;;15.40;99.90;;;;;;4994148;28;20397;-75
2022/10/04 10:16:02;;;;;;;21.63;14.00;;;15.60;99.90;;;;;;4993168;28;20088;-74
2022/10/04 10:19:01;;;;;;;23.00;13.43;;;15.60;99.90;;;;;;4998631;28;20133;-76
2022/10/04 10:21:51;;;;;;;23.10;13.30;;;15.90;99.90;;;;;;4990805;28;20045;-76
2022/10/04 10:24:53;;;;;;;18.23;11.68;;;15.90;99.90;;;;;;5001312;28;20424;-76
2022/10/04 10:27:53;;;;;;;18.00;11.55;;;15.80;99.90;;;;;;5005414;28;20520;-76
2022/10/04 10:30:30;;;;;;;18.65;12.40;;;15.80;99.90;;;;;;4991053;28;20513;-72
2022/10/04 10:33:07;;;;;;;20.42;12.70;;;15.70;99.90;;;;;;5009288;28;20060;-72
2022/10/04 10:35:57;;;;;;;20.70;12.45;;;15.60;99.90;;;;;;5002777;28;20050;-71
2022/10/04 10:38:39;;;;;;;20.42;13.10;;;15.50;99.90;;;;;;4996656;28;20046;-72
2022/10/04 10:41:18;;;;;;;21.08;12.82;;;15.40;99.90;;;;;;5003414;28;20523;-71
2022/10/04 10:44:15;;;;;;;16.70;11.70;;;15.30;99.90;;;;;;5003089;28;20046;-71
2022/10/04 10:47:07;;;;;;;18.15;11.90;;;15.40;99.90;;;;;;4997110;28;20120;-71
2022/10/04 10:49:44;;;;;;;19.88;12.13;;;15.50;99.90;;;;;;5006109;28;20153;-71
2022/10/04 10:52:53;;;;;;;20.98;12.10;;;15.60;99.90;;;;;;5000389;28;20042;-72
2022/10/04 10:55:38;;;;;;;14.90;11.25;;;15.70;99.90;;;;;;4997687;28;20049;-72
2022/10/04 10:58:09;;;;;;;18.30;11.25;;;15.80;99.90;;;;;;5000635;28;20077;-72
2022/10/04 11:01:09;;;;;;;17.48;11.10;;;15.90;99.90;;;;;;4996359;28;20042;-71
2022/10/04 11:04:11;;;;;;;17.77;11.23;;;16.00;99.90;;;;;;5001014;28;20397;-72
2022/10/04 11:07:21;;;;;;;15.98;10.88;;;16.10;99.90;;;;;;4989863;28;20046;-73
2022/10/04 11:10:05;;;;;;;17.50;10.02;;;16.20;99.90;;;;;;5001121;28;20043;-72
2022/10/04 11:12:52;;;;;;;15.75;10.52;;;16.20;99.90;;;;;;5000623;28;20489;-71
2022/10/04 11:15:38;;;;;;;13.40;10.15;;;16.20;99.90;;;;;;5005094;28;20433;-72
2022/10/04 11:18:24;;;;;;;16.35;10.27;;;16.30;99.90;;;;;;5004634;28;20248;-72
2022/10/04 11:20:49;;;;;;;15.80;10.40;;;16.30;99.90;;;;;;4999866;28;20053;-72
2022/10/04 11:23:24;;;;;;;16.83;11.05;;;16.30;99.90;;;;;;5004561;28;20406;-72
2022/10/04 11:26:08;;;;;;;16.80;11.18;;;16.30;99.90;;;;;;4995663;28;20127;-72
2022/10/04 11:29:12;;;;;;;18.55;10.82;;;16.20;99.90;;;;;;5000748;28;20161;-71
2022/10/04 11:31:58;;;;;;;16.77;11.48;;;16.20;99.90;;;;;;4988299;28;20422;-72
2022/10/04 11:34:42;;;;;;;16.75;11.68;;;16.10;99.90;;;;;;5001034;28;20076;-72
2022/10/04 11:37:48;;;;;;;16.27;11.05;;;16.00;99.90;;;;;;5002924;28;20049;-72
2022/10/04 11:40:25;;;;;;;14.65;9.90;;;16.20;99.90;;;;;;5005697;28;20058;-73
2022/10/04 11:43:18;;;;;;;19.58;11.73;;;16.30;99.90;;;;;;5006256;28;20065;-72
2022/10/04 11:46:06;;;;;;;16.85;10.40;;;16.30;99.90;;;;;;5003475;28;20046;-72
2022/10/04 11:48:54;;;;;;;15.63;9.30;;;16.40;99.90;;;;;;5007476;28;20611;-71
2022/10/04 11:51:46;;;;;;;15.15;10.23;;;16.40;99.90;;;;;;4989327;28;20052;-73
2022/10/04 11:54:30;;;;;;;14.82;10.13;;;16.40;99.90;;;;;;4994556;28;20053;-72
2022/10/04 11:57:17;;;;;;;15.75;9.88;;;16.50;99.90;;;;;;5002608;28;20045;-72
2022/10/04 12:00:19;;;;;;;17.05;10.43;;;16.60;99.90;;;;;;5005943;28;20529;-73
2022/10/04 12:03:08;;;;;;;14.05;9.93;;;16.70;99.90;;;;;;5010514;28;20042;-72
2022/10/04 12:05:48;;;;;;;13.80;10.30;;;16.90;99.90;;;;;;4999227;28;20062;-72
2022/10/04 12:08:41;;;;;;;13.35;8.88;;;17.00;99.90;;;;;;5003853;28;20141;-72
2022/10/04 12:11:07;;;;;;;;;;;17.10;99.90;;;;;;4996906;28;20065;-76
2022/10/04 12:13:46;;;;;;;16.55;8.27;;;17.20;99.90;;;;;;5000658;28;20281;-79
2022/10/04 12:16:33;;;;;;;15.02;8.82;;;17.20;99.90;;;;;;4994594;28;20117;-73
2022/10/04 12:19:14;;;;;;;17.02;9.45;;;17.30;99.90;;;;;;4993097;28;20054;-76
2022/10/04 12:22:01;;;;;;;13.80;9.18;;;17.30;99.90;;;;;;4997807;28;20133;-76
2022/10/04 12:24:56;;;;;;;16.40;8.40;;;17.30;99.90;;;;;;4999043;28;20046;-76
2022/10/04 12:27:25;;;;;;;15.80;8.63;;;17.40;99.90;;;;;;5000395;28;20049;-75
2022/10/04 12:30:32;;;;;;;13.40;8.55;;;17.40;99.90;;;;;;4995995;28;20214;-76
2022/10/04 12:33:13;;;;;;;12.32;7.45;;;17.40;99.90;;;;;;4988923;28;20054;-76
2022/10/04 12:36:00;;;;;;;13.05;7.47;;;17.40;99.90;;;;;;4990657;28;20120;-76
2022/10/04 12:38:44;;;;;;;14.55;8.20;;;17.40;99.90;;;;;;5017465;28;20876;-76
2022/10/04 12:41:47;;;;;;;13.10;7.20;;;17.40;99.90;;;;;;5001732;28;20505;-76
2022/10/04 12:44:39;;;;;;;18.42;8.07;;;17.40;99.90;;;;;;4998127;28;20057;-76
2022/10/04 12:47:31;;;;;;;21.20;8.02;;;17.50;99.90;;;;;;4992335;28;20050;-75
2022/10/04 12:50:35;;;;;;;11.00;7.50;;;17.50;99.90;;;;;;5008402;28;20060;-75
2022/10/04 12:53:33;;;;;;;10.43;7.28;;;17.60;99.90;;;;;;4995285;28;20043;-75
2022/10/04 12:56:36;;;;;;;14.15;6.88;;;17.60;99.90;;;;;;4994446;28;20124;-76
2022/10/04 12:59:27;;;;;;;12.55;6.00;;;17.50;99.90;;;;;;5006644;28;20417;-75
2022/10/04 13:02:08;;;;;;;11.73;6.55;;;17.50;99.90;;;;;;5005018;28;20058;-74
2022/10/04 13:04:35;;;;;;;14.95;6.60;;;17.50;99.90;;;;;;5002445;28;20053;-74
2022/10/04 13:07:09;;;;;;;11.77;6.40;;;17.50;99.90;;;;;;5009459;28;20053;-75
2022/10/04 13:09:43;;;;;;;11.13;6.60;;;17.60;99.90;;;;;;5002524;28;20137;-74
2022/10/04 13:12:18;;;;;;;13.02;5.22;;;17.60;99.90;;;;;;5007912;28;20429;-74
2022/10/04 13:14:50;;;;;;;9.88;6.43;;;17.60;99.90;;;;;;5005709;28;20430;-75
2022/10/04 13:17:33;;;;;;;11.95;6.45;;;17.60;99.90;;;;;;4994059;28;20434;-76
2022/10/04 13:20:11;;;;;;;;;;;17.50;99.90;;;;;;5009479;28;20083;-74
2022/10/04 13:22:54;;;;;;;11.55;6.28;;;17.40;99.90;;;;;;5008970;28;19921;-74
2022/10/04 13:25:36;;;;;;;11.00;6.03;;;17.40;99.90;;;;;;4995836;28;20099;-74
2022/10/04 13:28:21;;;;;;;12.15;6.70;;;17.40;99.90;;;;;;4998323;28;20176;-72
2022/10/04 13:30:59;;;;;;;12.10;6.78;;;17.40;99.90;;;;;;5001965;28;20117;-74
2022/10/04 13:33:56;;;;;;;9.52;6.13;;;17.40;99.90;;;;;;5003322;28;20054;-74
2022/10/04 13:36:44;;;;;;;10.73;5.57;;;17.40;99.90;;;;;;5002143;28;20412;-75
2022/10/04 13:39:39;;;;;;;7.65;5.55;;;17.40;99.90;;;;;;4999972;28;20140;-75
2022/10/04 13:42:11;;;;;;;10.07;6.15;;;17.40;99.90;;;;;;4987953;28;20225;-76
2022/10/04 13:44:43;;;;;;;12.68;5.82;;;17.40;99.90;;;;;;5002603;28;20064;-77
2022/10/04 13:47:36;;;;;;;11.38;5.18;;;17.40;99.90;;;;;;4997324;28;20042;-76
2022/10/04 13:50:23;;;;;;;11.18;5.80;;;17.40;99.90;;;;;;4999291;28;20527;-77